Time;durP1;ratioP1;P1;durP2;ratioP2;P2;SDS_P1;SDS_P2;PMS_P1;PMS_P2;Temp;Humidity;BMP_temperature;BMP_pressure;BME280_temperature;BME280_humidity;BME280_pressure;Samples;Min_cycle;Max_cycle;Signal;HPM_P1;HPM_P2
2023/06/21 00:00:51;;;;;;;16.42;13.77;;;19.50;99.90;;;;;;5088248;28;20100;-70
2023/06/21 00:03:17;;;;;;;17.08;12.32;;;19.70;99.90;;;;;;5050894;28;20048;-70
2023/06/21 00:05:42;;;;;;;15.25;12.27;;;19.50;99.90;;;;;;5072369;28;20039;-70
2023/06/21 00:08:08;;;;;;;18.25;14.00;;;;;;;;;;5087306;28;20414;-70
2023/06/21 00:10:34;;;;;;;15.35;12.40;;;19.40;99.90;;;;;;5086339;28;20039;-70
2023/06/21 00:13:00;;;;;;;15.95;12.57;;;19.40;99.90;;;;;;5070784;28;20082;-70
2023/06/21 00:15:26;;;;;;;15.77;13.27;;;19.40;99.90;;;;;;5071677;28;20401;-70
2023/06/21 00:17:52;;;;;;;14.30;12.80;;;;;;;;;;5087491;28;20050;-70
2023/06/21 00:20:18;;;;;;;18.67;12.82;;;;;;;;;;5070866;28;20048;-70
2023/06/21 00:22:45;;;;;;;17.70;14.00;;;19.40;99.90;;;;;;5070795;28;20750;-71
2023/06/21 00:25:12;;;;;;;15.75;13.48;;;19.30;99.90;;;;;;5070818;28;20040;-70
2023/06/21 00:27:38;;;;;;;18.65;14.77;;;19.40;99.90;;;;;;5070546;28;20040;-70
2023/06/21 00:30:04;;;;;;;15.82;13.82;;;19.30;99.90;;;;;;5070449;28;20051;-71
2023/06/21 00:32:30;;;;;;;20.48;14.43;;;;;;;;;;5069922;28;20051;-70
2023/06/21 00:34:56;;;;;;;19.73;14.65;;;;;;;;;;5074568;28;20074;-71
2023/06/21 00:37:22;;;;;;;17.70;13.27;;;19.30;99.90;;;;;;5083246;28;20055;-71
2023/06/21 00:39:47;;;;;;;20.75;14.57;;;19.40;99.90;;;;;;5051083;28;20076;-70
2023/06/21 00:42:13;;;;;;;18.05;15.15;;;19.40;99.90;;;;;;5071309;28;20047;-71
2023/06/21 00:44:39;;;;;;;23.90;15.65;;;19.30;99.90;;;;;;5086846;28;20040;-71
2023/06/21 00:47:05;;;;;;;18.13;15.52;;;;;;;;;;5071415;28;20044;-70
2023/06/21 00:49:32;;;;;;;20.23;16.20;;;;;;;;;;5070292;28;20105;-70
2023/06/21 00:51:58;;;;;;;24.67;16.38;;;;;;;;;;5071679;28;20044;-70
2023/06/21 00:54:43;;;;;;;20.70;16.75;;;19.40;99.90;;;;;;5086877;28;20578;-71
2023/06/21 00:57:11;;;;;;;24.02;17.52;;;;;;;;;;5086115;28;20059;-70
2023/06/21 00:59:37;;;;;;;21.83;17.08;;;;;;;;;;5069960;28;20131;-70
2023/06/21 01:02:03;;;;;;;22.05;16.90;;;19.30;99.90;;;;;;5070078;28;20143;-70
2023/06/21 01:04:37;;;;;;;22.23;17.77;;;19.20;99.90;;;;;;5083920;28;20054;-70
2023/06/21 01:07:29;;;;;;;21.33;17.98;;;19.30;99.90;;;;;;5068644;28;20048;-71
2023/06/21 01:10:09;;;;;;;19.23;17.10;;;19.20;99.90;;;;;;5086103;28;20460;-71
2023/06/21 01:13:13;;;;;;;27.08;18.58;;;19.10;99.90;;;;;;5070004;28;20047;-70
2023/06/21 01:15:49;;;;;;;24.55;19.38;;;19.10;99.90;;;;;;5086693;28;20059;-71
2023/06/21 01:18:17;;;;;;;24.20;19.42;;;19.20;99.90;;;;;;5069886;28;20653;-70
2023/06/21 01:20:48;;;;;;;22.95;18.52;;;19.10;99.90;;;;;;5086331;28;20039;-70
2023/06/21 01:23:14;;;;;;;22.05;19.08;;;;;;;;;;5083295;28;20891;-70
2023/06/21 01:25:50;;;;;;;23.58;20.02;;;19.10;99.90;;;;;;5081182;28;20138;-71
2023/06/21 01:28:37;;;;;;;25.30;20.40;;;19.00;99.90;;;;;;5070317;28;20051;-71
2023/06/21 01:31:05;;;;;;;28.83;21.63;;;19.20;99.90;;;;;;5068542;28;20066;-71
2023/06/21 01:33:31;;;;;;;26.55;21.15;;;19.30;99.90;;;;;;5070308;28;20051;-70
2023/06/21 01:35:57;;;;;;;28.48;21.70;;;;;;;;;;5085917;28;20504;-70
2023/06/21 01:38:24;;;;;;;29.65;22.75;;;;;;;;;;5085990;28;20065;-71
2023/06/21 01:40:50;;;;;;;29.38;22.45;;;;;;;;;;5085801;28;20110;-71
2023/06/21 01:43:17;;;;;;;29.70;23.48;;;18.90;99.90;;;;;;5086024;28;20090;-70
2023/06/21 01:45:43;;;;;;;31.27;24.83;;;18.90;99.90;;;;;;5069681;28;20047;-70
2023/06/21 01:48:09;;;;;;;31.50;23.80;;;19.00;99.90;;;;;;5071929;28;20040;-70
2023/06/21 01:50:37;;;;;;;29.33;22.52;;;18.80;99.90;;;;;;5086048;28;20116;-70
2023/06/21 01:53:04;;;;;;;34.33;24.83;;;18.80;99.90;;;;;;5079434;28;20078;-71
2023/06/21 01:55:31;;;;;;;31.77;24.67;;;19.00;99.90;;;;;;5070103;28;20563;-70
2023/06/21 01:57:57;;;;;;;30.98;23.98;;;;;;;;;;5070903;28;20129;-71
2023/06/21 02:00:24;;;;;;;32.85;25.42;;;18.90;99.90;;;;;;5069224;28;20561;-71
2023/06/21 02:02:53;;;;;;;33.92;25.73;;;18.80;99.90;;;;;;5070093;28;20708;-70
2023/06/21 02:05:20;;;;;;;32.92;25.10;;;18.90;99.90;;;;;;5052578;28;20534;-70
2023/06/21 02:07:47;;;;;;;33.15;26.45;;;18.80;99.90;;;;;;5067530;28;20048;-70
2023/06/21 02:10:14;;;;;;;36.45;27.90;;;18.60;99.90;;;;;;5069520;28;20059;-70
2023/06/21 02:12:41;;;;;;;36.83;28.38;;;18.80;99.90;;;;;;5086038;28;20553;-70
2023/06/21 02:15:10;;;;;;;35.47;27.85;;;18.80;99.90;;;;;;5072207;28;20052;-70
2023/06/21 02:17:36;;;;;;;39.25;28.65;;;19.00;99.90;;;;;;5063456;28;20592;-70
2023/06/21 02:20:08;;;;;;;43.35;29.60;;;18.90;99.90;;;;;;5069323;28;20048;-71
2023/06/21 02:22:33;;;;;;;43.10;31.63;;;18.90;99.90;;;;;;5052417;28;20051;-70
2023/06/21 02:24:59;;;;;;;42.55;32.53;;;18.90;99.90;;;;;;5070789;28;20039;-70
2023/06/21 02:27:25;;;;;;;43.10;32.30;;;;;;;;;;5068633;28;20135;-70
2023/06/21 02:29:51;;;;;;;43.60;32.20;;;;;;;;;;5070578;28;20048;-70
2023/06/21 02:32:16;;;;;;;44.78;32.72;;;18.80;99.90;;;;;;5068810;28;20056;-70
2023/06/21 02:34:42;;;;;;;43.33;33.15;;;;;;;;;;5070535;28;20058;-70
2023/06/21 02:37:11;;;;;;;51.08;34.40;;;;;;;;;;5085471;28;20075;-70
2023/06/21 02:39:38;;;;;;;50.10;34.65;;;18.70;99.90;;;;;;5080837;28;20044;-70
2023/06/21 02:42:03;;;;;;;51.60;36.20;;;18.80;99.90;;;;;;5085207;28;20032;-70
2023/06/21 02:44:29;;;;;;;56.53;36.67;;;;;;;;;;5070204;28;20080;-70
2023/06/21 02:46:56;;;;;;;52.95;37.15;;;;;;;;;;5068654;28;20052;-71
2023/06/21 02:49:22;;;;;;;57.20;39.03;;;18.80;99.90;;;;;;5064848;28;20127;-71
2023/06/21 02:51:50;;;;;;;55.75;38.47;;;18.60;99.90;;;;;;5054558;28;20050;-71
2023/06/21 02:54:16;;;;;;;58.28;39.22;;;;;;;;;;5069407;28;20418;-70
2023/06/21 02:56:45;;;;;;;56.88;38.70;;;;;;;;;;5069881;28;20093;-71
2023/06/21 02:59:11;;;;;;;58.95;39.00;;;18.60;99.90;;;;;;5080301;28;20051;-71
2023/06/21 03:01:37;;;;;;;60.70;39.17;;;;;;;;;;5072697;28;20268;-70
2023/06/21 03:04:03;;;;;;;63.60;41.40;;;;;;;;;;5072339;28;20043;-71
2023/06/21 03:06:29;;;;;;;60.30;40.63;;;;;;;;;;5075926;28;20135;-70
2023/06/21 03:08:58;;;;;;;66.03;42.53;;;18.80;99.90;;;;;;5072233;28;20066;-70
2023/06/21 03:11:24;;;;;;;63.45;41.92;;;19.00;99.90;;;;;;5072713;28;20147;-70
2023/06/21 03:13:50;;;;;;;63.80;43.55;;;;;;;;;;5078831;28;20126;-70
2023/06/21 03:16:16;;;;;;;62.83;41.85;;;;;;;;;;5073131;28;20047;-70
2023/06/21 03:18:42;;;;;;;64.50;42.42;;;;;;;;;;5071386;28;20409;-70
2023/06/21 03:21:08;;;;;;;63.88;40.22;;;18.70;99.90;;;;;;5088463;28;20044;-70
2023/06/21 03:23:35;;;;;;;64.63;43.72;;;18.90;99.90;;;;;;5074290;28;20520;-70
2023/06/21 03:26:01;;;;;;;70.47;44.58;;;;;;;;;;5072901;28;20048;-70
2023/06/21 03:28:27;;;;;;;65.28;43.70;;;;;;;;;;5071699;28;20051;-70
2023/06/21 03:30:53;;;;;;;64.30;43.20;;;19.00;99.90;;;;;;5072239;28;20091;-70
2023/06/21 03:33:19;;;;;;;63.53;42.80;;;;;;;;;;5071465;28;20083;-70
2023/06/21 03:35:45;;;;;;;64.20;41.30;;;19.00;99.90;;;;;;5072374;28;20052;-70
2023/06/21 03:38:10;;;;;;;59.00;40.72;;;18.90;99.90;;;;;;5080060;28;20056;-70
2023/06/21 03:40:36;;;;;;;60.78;42.22;;;;;;;;;;5082387;28;20040;-70
2023/06/21 03:43:02;;;;;;;58.22;40.55;;;;;;;;;;5071365;28;20039;-70
2023/06/21 03:45:28;;;;;;;64.63;43.50;;;18.80;99.90;;;;;;5088832;28;20040;-70
2023/06/21 03:47:53;;;;;;;62.35;42.72;;;18.70;99.90;;;;;;5071453;28;20090;-70
2023/06/21 03:50:19;;;;;;;60.33;41.10;;;;;;;;;;5088647;28;20461;-70
2023/06/21 03:52:45;;;;;;;60.45;41.15;;;18.60;99.90;;;;;;5070980;28;20559;-70
2023/06/21 03:55:11;;;;;;;62.53;42.65;;;;;;;;;;5070672;28;20039;-70
2023/06/21 03:57:38;;;;;;;63.63;42.28;;;;;;;;;;5067925;28;20137;-70
2023/06/21 04:00:06;;;;;;;61.47;41.70;;;18.80;99.90;;;;;;5083858;28;20048;-70
2023/06/21 04:02:33;;;;;;;62.50;41.58;;;;;;;;;;5066962;28;20044;-70
2023/06/21 04:04:58;;;;;;;62.25;43.92;;;;;;;;;;5087770;28;20490;-70
2023/06/21 04:07:24;;;;;;;56.47;40.15;;;18.50;99.90;;;;;;5070271;28;20054;-70
2023/06/21 04:09:51;;;;;;;59.78;41.88;;;;;;;;;;5069705;28;20090;-70
2023/06/21 04:12:17;;;;;;;56.55;40.83;;;;;;;;;;5087292;28;20048;-70
2023/06/21 04:14:43;;;;;;;62.70;42.28;;;;;;;;;;5070363;28;20044;-70
2023/06/21 04:17:09;;;;;;;65.30;41.80;;;18.60;99.90;;;;;;5087635;28;20040;-70
2023/06/21 04:19:35;;;;;;;56.38;41.58;;;;;;;;;;5076734;28;20083;-70
2023/06/21 04:22:01;;;;;;;57.35;41.70;;;;;;;;;;5070016;28;20050;-70
2023/06/21 04:24:26;;;;;;;59.67;41.63;;;18.80;99.90;;;;;;5069306;28;20604;-70
2023/06/21 04:26:53;;;;;;;54.72;40.17;;;;;;;;;;5087129;28;20035;-70
2023/06/21 04:29:20;;;;;;;63.20;42.50;;;18.70;99.90;;;;;;5069220;28;20044;-70
2023/06/21 04:31:46;;;;;;;57.30;41.72;;;;;;;;;;5086746;28;20047;-70
2023/06/21 04:34:12;;;;;;;60.00;41.33;;;;;;;;;;5052562;28;20052;-70
2023/06/21 04:36:38;;;;;;;56.38;39.58;;;;;;;;;;5069487;28;20044;-70
2023/06/21 04:39:05;;;;;;;56.65;38.83;;;;;;;;;;5068950;28;20730;-70
2023/06/21 04:41:31;;;;;;;49.35;35.72;;;;;;;;;;5087135;28;20057;-70
2023/06/21 04:43:57;;;;;;;49.13;34.25;;;;;;;;;;5068961;28;20552;-70
2023/06/21 04:46:26;;;;;;;50.30;34.30;;;;;;;;;;5068876;28;20086;-70
2023/06/21 04:48:52;;;;;;;44.40;32.55;;;18.80;99.90;;;;;;5087094;28;20043;-70
2023/06/21 04:51:18;;;;;;;46.58;31.15;;;;;;;;;;5086786;28;20799;-70
2023/06/21 04:53:44;;;;;;;41.40;28.95;;;18.80;99.90;;;;;;5068816;28;20407;-70
2023/06/21 04:56:13;;;;;;;39.08;26.77;;;;;;;;;;5068677;28;20153;-70
2023/06/21 04:58:39;;;;;;;34.28;24.73;;;19.30;99.90;;;;;;5065804;28;20043;-70
2023/06/21 05:01:06;;;;;;;34.70;23.58;;;19.20;99.90;;;;;;5068244;28;20402;-70
2023/06/21 05:03:32;;;;;;;29.80;20.77;;;19.40;99.90;;;;;;5068744;28;20040;-70
2023/06/21 05:06:01;;;;;;;32.47;20.80;;;19.60;99.90;;;;;;5086504;28;20036;-71
2023/06/21 05:08:27;;;;;;;23.83;18.40;;;20.10;99.90;;;;;;5064840;28;20122;-71
2023/06/21 05:10:53;;;;;;;25.80;18.17;;;;;;;;;;5068492;28;20121;-71
2023/06/21 05:13:19;;;;;;;24.20;15.75;;;20.40;99.90;;;;;;5068802;28;20643;-70
2023/06/21 05:15:45;;;;;;;21.85;15.82;;;20.50;99.90;;;;;;5061839;28;20051;-70
2023/06/21 05:18:10;;;;;;;21.77;14.93;;;20.50;99.90;;;;;;5068701;28;20040;-70
2023/06/21 05:20:36;;;;;;;24.88;16.80;;;20.70;99.90;;;;;;5067291;28;20036;-70
2023/06/21 05:23:01;;;;;;;22.25;14.88;;;20.40;99.90;;;;;;5069344;28;20040;-70
2023/06/21 05:25:27;;;;;;;20.80;13.95;;;20.60;99.90;;;;;;5068470;28;20048;-71
2023/06/21 05:27:53;;;;;;;18.58;12.95;;;21.00;99.90;;;;;;5068480;28;20048;-72
2023/06/21 05:30:18;;;;;;;20.23;12.93;;;21.10;99.90;;;;;;5068079;28;20147;-71
2023/06/21 05:32:44;;;;;;;20.17;13.35;;;21.60;99.90;;;;;;5067936;28;20047;-70
2023/06/21 05:35:10;;;;;;;17.80;12.55;;;21.60;99.90;;;;;;5068386;28;20055;-71
2023/06/21 05:37:36;;;;;;;18.40;12.15;;;22.00;99.90;;;;;;5068242;28;20036;-70
2023/06/21 05:40:04;;;;;;;17.35;12.30;;;22.40;99.90;;;;;;5067875;28;20952;-70
2023/06/21 05:42:32;;;;;;;17.40;10.88;;;22.40;99.90;;;;;;5086109;28;20097;-71
2023/06/21 05:44:58;;;;;;;14.45;9.98;;;22.60;99.90;;;;;;5067947;28;20706;-71
2023/06/21 05:47:23;;;;;;;18.65;11.05;;;22.90;99.90;;;;;;5086406;28;20043;-71
2023/06/21 05:49:49;;;;;;;17.58;10.55;;;23.50;99.90;;;;;;5071991;28;20094;-71
2023/06/21 05:52:15;;;;;;;15.50;10.10;;;25.10;99.90;;;;;;5068385;28;20443;-70
2023/06/21 05:54:43;;;;;;;13.88;9.25;;;24.90;99.90;;;;;;5067714;28;20058;-73
2023/06/21 05:57:09;;;;;;;12.13;9.25;;;24.00;99.90;;;;;;5084272;28;20047;-72
2023/06/21 05:59:35;;;;;;;15.75;9.80;;;24.50;99.90;;;;;;5074135;28;20043;-71
2023/06/21 06:02:00;;;;;;;11.60;7.95;;;24.80;99.90;;;;;;5085825;28;20036;-71
2023/06/21 06:04:26;;;;;;;12.68;8.75;;;25.10;99.90;;;;;;5080087;28;20040;-71
2023/06/21 06:06:51;;;;;;;10.50;7.93;;;25.50;99.90;;;;;;5068238;28;20067;-71
2023/06/21 06:09:17;;;;;;;14.10;9.07;;;25.30;99.90;;;;;;5068188;28;20063;-71
2023/06/21 06:11:42;;;;;;;11.82;8.50;;;26.60;99.90;;;;;;5085523;28;20548;-72
2023/06/21 06:14:10;;;;;;;13.48;8.07;;;26.00;99.90;;;;;;5085633;28;20403;-73
2023/06/21 06:16:36;;;;;;;12.10;8.20;;;26.30;99.90;;;;;;5064698;28;20098;-72
2023/06/21 06:19:02;;;;;;;11.15;7.63;;;26.50;99.90;;;;;;5068780;28;20572;-71
2023/06/21 06:21:28;;;;;;;11.20;7.88;;;27.50;99.90;;;;;;5085261;28;20123;-71
2023/06/21 06:23:54;;;;;;;12.90;7.53;;;26.70;99.90;;;;;;5085505;28;20082;-71
2023/06/21 06:26:22;;;;;;;11.82;6.70;;;26.40;99.90;;;;;;5079706;28;20129;-70
2023/06/21 06:28:49;;;;;;;12.25;7.78;;;26.70;99.90;;;;;;5064946;28;20055;-70
2023/06/21 06:31:14;;;;;;;11.52;6.57;;;27.10;99.90;;;;;;5059060;28;20053;-70
2023/06/21 06:33:40;;;;;;;14.95;7.40;;;27.00;99.90;;;;;;5085361;28;20059;-69
2023/06/21 06:36:06;;;;;;;11.30;6.80;;;26.80;99.90;;;;;;5063864;28;20040;-69
2023/06/21 06:38:31;;;;;;;9.10;6.57;;;26.30;99.90;;;;;;5071617;28;20393;-69
2023/06/21 06:40:57;;;;;;;10.02;6.40;;;26.30;99.90;;;;;;5072661;28;20072;-69
2023/06/21 06:43:23;;;;;;;9.60;7.25;;;24.80;99.90;;;;;;5089429;28;20040;-68
2023/06/21 06:45:48;;;;;;;11.00;6.60;;;24.20;99.90;;;;;;5087616;28;20055;-68
2023/06/21 06:48:14;;;;;;;11.82;7.35;;;23.90;99.90;;;;;;5079514;28;20040;-68
2023/06/21 06:50:41;;;;;;;12.20;7.63;;;23.50;99.90;;;;;;5068133;28;20774;-68
2023/06/21 06:53:08;;;;;;;10.25;7.10;;;23.40;99.90;;;;;;5067878;28;20090;-68
2023/06/21 06:55:34;;;;;;;13.82;7.05;;;23.30;99.90;;;;;;5089574;28;20048;-68
2023/06/21 06:58:01;;;;;;;11.70;6.57;;;24.00;99.90;;;;;;5054597;28;20184;-69
2023/06/21 07:00:27;;;;;;;14.38;7.93;;;23.30;99.90;;;;;;5088658;28;20306;-69
2023/06/21 07:02:56;;;;;;;9.32;6.25;;;22.60;99.90;;;;;;5074385;28;20135;-69
2023/06/21 07:05:25;;;;;;;11.30;6.15;;;23.00;99.90;;;;;;5085516;28;20044;-69
2023/06/21 07:07:52;;;;;;;11.43;6.20;;;22.50;99.90;;;;;;5085234;28;20071;-68
2023/06/21 07:10:18;;;;;;;8.68;5.97;;;22.50;99.90;;;;;;5088792;28;20048;-69
2023/06/21 07:12:44;;;;;;;10.63;6.88;;;22.60;99.90;;;;;;5086030;28;20038;-69
2023/06/21 07:15:10;;;;;;;11.18;6.93;;;22.60;99.90;;;;;;5087872;28;20032;-71
2023/06/21 07:17:35;;;;;;;11.02;5.68;;;22.50;99.90;;;;;;5064206;28;20043;-70
2023/06/21 07:20:01;;;;;;;11.35;6.00;;;22.60;99.90;;;;;;5080500;28;20036;-69
2023/06/21 07:22:26;;;;;;;18.40;6.70;;;22.30;99.90;;;;;;5078472;28;20409;-70
2023/06/21 07:25:48;;;;;;;9.65;6.25;;;22.50;99.90;;;;;;5069977;28;20085;-68
2023/06/21 07:28:14;;;;;;;13.43;6.30;;;22.80;99.90;;;;;;5088043;28;20059;-72
2023/06/21 07:30:42;;;;;;;11.80;5.80;;;22.40;99.90;;;;;;5069649;28;20067;-71
2023/06/21 07:33:08;;;;;;;9.25;5.72;;;22.70;99.90;;;;;;5083581;28;20070;-70
2023/06/21 07:35:34;;;;;;;9.52;5.15;;;22.30;99.90;;;;;;5063926;28;20822;-70
2023/06/21 07:38:00;;;;;;;9.10;5.60;;;22.40;99.90;;;;;;5068516;28;20312;-73
2023/06/21 07:40:25;;;;;;;8.30;5.18;;;22.30;99.90;;;;;;5087777;28;20131;-72
2023/06/21 07:42:51;;;;;;;6.90;5.22;;;22.20;99.90;;;;;;5069248;28;20084;-70
2023/06/21 07:45:54;;;;;;;7.88;5.28;;;22.40;99.90;;;;;;5070872;28;20097;-69
2023/06/21 07:48:20;;;;;;;8.18;6.15;;;22.30;99.90;;;;;;5087590;28;20101;-70
2023/06/21 07:50:45;;;;;;;7.45;5.57;;;22.20;99.90;;;;;;5075508;28;20047;-70
2023/06/21 07:53:11;;;;;;;7.93;5.95;;;22.60;99.90;;;;;;5072171;28;20051;-70
2023/06/21 07:55:36;;;;;;;10.10;6.55;;;22.50;99.90;;;;;;5070061;28;20048;-70
2023/06/21 07:58:02;;;;;;;8.35;5.70;;;22.30;99.90;;;;;;5063307;28;20060;-70
2023/06/21 08:00:27;;;;;;;6.82;5.10;;;22.50;99.90;;;;;;5077425;28;20039;-70
2023/06/21 08:02:54;;;;;;;8.02;4.85;;;22.60;99.90;;;;;;5069921;28;20032;-70
2023/06/21 08:05:19;;;;;;;7.65;5.20;;;22.40;99.90;;;;;;5069756;28;20190;-72
2023/06/21 08:07:45;;;;;;;10.43;6.20;;;22.50;99.90;;;;;;5076052;28;20481;-72
2023/06/21 08:10:12;;;;;;;6.93;5.30;;;24.00;99.90;;;;;;5074308;28;20060;-72
2023/06/21 08:12:38;;;;;;;10.80;5.90;;;23.00;99.90;;;;;;5085860;28;20394;-72
2023/06/21 08:15:05;;;;;;;8.10;5.13;;;22.70;99.90;;;;;;5063174;28;20028;-70
2023/06/21 08:17:30;;;;;;;10.73;5.60;;;22.90;99.90;;;;;;5083207;28;20075;-70
2023/06/21 08:19:56;;;;;;;9.68;4.75;;;22.40;99.90;;;;;;5072406;28;20068;-71
2023/06/21 08:22:21;;;;;;;8.50;5.78;;;22.80;99.90;;;;;;5086021;28;20043;-72
2023/06/21 08:24:47;;;;;;;8.73;4.82;;;22.60;99.90;;;;;;5067440;28;20124;-72
2023/06/21 08:27:14;;;;;;;6.15;4.45;;;23.00;99.90;;;;;;5083380;28;20048;-71
2023/06/21 08:29:39;;;;;;;6.22;4.70;;;22.80;99.90;;;;;;5067271;28;20040;-72
2023/06/21 08:32:05;;;;;;;8.38;4.35;;;23.00;99.90;;;;;;5069633;28;20055;-72
2023/06/21 08:34:31;;;;;;;7.30;4.22;;;22.90;99.90;;;;;;5077619;28;20822;-72
2023/06/21 08:36:56;;;;;;;9.25;4.65;;;23.00;99.90;;;;;;5074358;28;20044;-74
2023/06/21 08:39:22;;;;;;;4.63;4.07;;;24.20;99.90;;;;;;5065996;28;20040;-71
2023/06/21 08:41:48;;;;;;;7.95;3.83;;;22.90;99.90;;;;;;5087637;28;20556;-71
2023/06/21 08:44:13;;;;;;;8.00;4.30;;;23.90;99.90;;;;;;5071997;28;20448;-71
2023/06/21 08:46:40;;;;;;;9.20;4.25;;;24.50;99.90;;;;;;5071428;28;20032;-71
2023/06/21 08:49:13;;;;;;;6.72;3.53;;;23.10;99.90;;;;;;5069379;28;20144;-71
2023/06/21 08:51:40;;;;;;;4.80;3.35;;;23.20;99.90;;;;;;5068946;28;20125;-71
2023/06/21 08:54:09;;;;;;;7.65;4.90;;;23.00;99.90;;;;;;5051655;28;20733;-70
2023/06/21 08:57:06;;;;;;;7.75;4.05;;;23.10;99.90;;;;;;5069625;28;20032;-70
2023/06/21 08:59:41;;;;;;;5.82;3.78;;;23.20;99.90;;;;;;5085415;28;20498;-71
2023/06/21 09:02:09;;;;;;;5.30;3.65;;;23.30;99.90;;;;;;5071042;28;20056;-70
2023/06/21 09:04:42;;;;;;;7.60;4.05;;;23.40;99.90;;;;;;5086742;28;20072;-71
2023/06/21 09:07:09;;;;;;;6.45;3.40;;;23.50;99.90;;;;;;5068535;28;20047;-70
2023/06/21 09:09:36;;;;;;;5.32;3.22;;;23.50;99.90;;;;;;5084605;28;20371;-69
2023/06/21 09:12:02;;;;;;;6.78;4.45;;;23.30;99.90;;;;;;5070091;28;20054;-70
2023/06/21 09:14:31;;;;;;;7.10;4.50;;;23.30;99.90;;;;;;5084514;28;20044;-70
2023/06/21 09:17:02;;;;;;;10.38;4.22;;;23.20;99.90;;;;;;5066043;28;20044;-70
2023/06/21 09:19:28;;;;;;;4.53;2.92;;;23.00;99.90;;;;;;5066957;28;20048;-72
2023/06/21 09:21:56;;;;;;;4.60;3.00;;;25.00;99.90;;;;;;5068231;28;20051;-71
2023/06/21 09:24:22;;;;;;;6.30;3.78;;;23.40;99.90;;;;;;5052413;28;20036;-71
2023/06/21 09:26:48;;;;;;;7.18;4.18;;;25.10;99.90;;;;;;5073190;28;20050;-73
2023/06/21 09:29:15;;;;;;;4.65;3.20;;;23.60;99.90;;;;;;5087273;28;20044;-70
2023/06/21 09:31:41;;;;;;;4.35;2.90;;;23.60;99.90;;;;;;5063702;28;20146;-71
2023/06/21 09:34:06;;;;;;;6.00;2.90;;;23.60;99.90;;;;;;5076326;28;20516;-72
2023/06/21 09:36:32;;;;;;;4.43;2.28;;;23.80;99.90;;;;;;5071397;28;20504;-70
2023/06/21 09:39:08;;;;;;;8.07;2.88;;;23.90;99.90;;;;;;5082571;28;20060;-70
2023/06/21 09:41:33;;;;;;;6.78;3.45;;;23.90;99.90;;;;;;5052797;28;20569;-70
2023/06/21 09:43:59;;;;;;;6.93;3.97;;;23.90;99.90;;;;;;5070452;28;20042;-71
2023/06/21 09:46:25;;;;;;;4.30;2.33;;;24.40;99.90;;;;;;5078132;28;20028;-73
2023/06/21 09:48:50;;;;;;;5.25;2.88;;;25.60;99.90;;;;;;5088447;28;20486;-70
2023/06/21 09:51:18;;;;;;;8.32;3.45;;;24.00;99.90;;;;;;5078958;28;20040;-71
2023/06/21 09:53:49;;;;;;;5.55;3.95;;;24.10;99.90;;;;;;5065947;28;20040;-72
2023/06/21 09:56:19;;;;;;;6.45;3.00;;;24.00;99.90;;;;;;5085125;28;20058;-71
2023/06/21 09:58:47;;;;;;;5.85;2.60;;;23.90;99.90;;;;;;5066089;28;20054;-72
2023/06/21 10:01:16;;;;;;;3.47;2.45;;;23.70;99.90;;;;;;5060251;28;20115;-70
2023/06/21 10:03:46;;;;;;;4.15;2.42;;;24.00;99.90;;;;;;5057589;28;20846;-71
2023/06/21 10:06:16;;;;;;;4.78;3.17;;;24.10;99.90;;;;;;5083725;28;20043;-71
2023/06/21 10:08:43;;;;;;;5.90;3.35;;;24.20;99.90;;;;;;5067249;28;20147;-71
2023/06/21 10:11:08;;;;;;;7.32;4.45;;;24.30;99.90;;;;;;5084139;28;20051;-71
2023/06/21 10:13:38;;;;;;;6.40;3.80;;;24.40;99.90;;;;;;5074273;28;20055;-70
2023/06/21 10:16:04;;;;;;;5.95;3.22;;;24.40;99.90;;;;;;5065149;28;20044;-70
2023/06/21 10:18:30;;;;;;;5.80;2.95;;;24.50;99.90;;;;;;5079663;28;20355;-70
2023/06/21 10:21:00;;;;;;;6.38;3.35;;;24.60;99.90;;;;;;5067321;28;20036;-70
2023/06/21 10:23:31;;;;;;;4.90;2.90;;;24.40;99.90;;;;;;5061022;28;20035;-69
2023/06/21 10:26:04;;;;;;;3.92;2.28;;;24.20;99.90;;;;;;5060708;28;20040;-71
2023/06/21 10:28:35;;;;;;;5.78;3.35;;;24.40;99.90;;;;;;5076324;28;20072;-71
2023/06/21 10:31:08;;;;;;;5.05;3.50;;;24.30;99.90;;;;;;5067730;28;20074;-69
2023/06/21 10:33:35;;;;;;;8.13;3.88;;;24.30;99.90;;;;;;5079354;28;20058;-69
2023/06/21 10:36:03;;;;;;;5.25;3.55;;;24.20;99.90;;;;;;5065556;28;20135;-70
2023/06/21 10:38:41;;;;;;;4.45;2.97;;;24.10;99.90;;;;;;5066492;28;20130;-71
2023/06/21 10:41:07;;;;;;;6.45;3.50;;;24.10;99.90;;;;;;5077251;28;20075;-71
2023/06/21 10:43:35;;;;;;;5.80;3.42;;;23.90;99.90;;;;;;5068645;28;20039;-72
2023/06/21 10:46:03;;;;;;;5.18;3.40;;;24.00;99.90;;;;;;5062429;28;20513;-73
2023/06/21 10:48:31;;;;;;;9.00;5.28;;;24.10;99.90;;;;;;5082981;28;20051;-70
2023/06/21 10:50:57;;;;;;;6.40;3.78;;;24.40;99.90;;;;;;5065218;28;20044;-71
2023/06/21 10:53:23;;;;;;;6.70;3.67;;;24.30;99.90;;;;;;5054614;28;20063;-71
2023/06/21 10:55:49;;;;;;;6.53;3.97;;;24.20;99.90;;;;;;5070880;28;20047;-71
2023/06/21 10:58:16;;;;;;;8.35;3.92;;;24.20;99.90;;;;;;5085087;28;20044;-70
2023/06/21 11:00:47;;;;;;;5.00;3.05;;;25.70;99.90;;;;;;5064635;28;20082;-71
2023/06/21 11:03:15;;;;;;;5.60;3.55;;;24.60;99.90;;;;;;5078354;28;20120;-72
2023/06/21 11:05:41;;;;;;;5.65;3.28;;;24.60;99.90;;;;;;5064612;28;20039;-71
2023/06/21 11:08:09;;;;;;;4.38;2.97;;;24.70;99.90;;;;;;5064896;28;20054;-70
2023/06/21 11:10:43;;;;;;;5.13;2.80;;;24.30;99.90;;;;;;5062667;28;20052;-71
2023/06/21 11:13:10;;;;;;;5.32;4.35;;;24.50;99.90;;;;;;5060988;28;20492;-71
2023/06/21 11:15:40;;;;;;;7.90;4.88;;;24.80;99.90;;;;;;5064169;28;20543;-70
2023/06/21 11:18:08;;;;;;;8.68;4.32;;;24.70;99.90;;;;;;5071153;28;20386;-72
2023/06/21 11:21:05;;;;;;;7.35;4.90;;;24.60;99.90;;;;;;5074026;28;20112;-71
2023/06/21 11:23:31;;;;;;;6.55;4.10;;;24.80;99.90;;;;;;5065829;28;20517;-72
2023/06/21 11:26:03;;;;;;;3.70;2.75;;;25.00;99.90;;;;;;5070241;28;20097;-72
2023/06/21 11:28:32;;;;;;;5.65;3.00;;;24.90;99.90;;;;;;5081792;28;20830;-71
2023/06/21 11:31:01;;;;;;;4.35;2.88;;;25.00;99.90;;;;;;5072709;28;20080;-71
2023/06/21 11:33:31;;;;;;;7.28;3.45;;;25.10;99.90;;;;;;5061876;28;20429;-71
2023/06/21 11:36:03;;;;;;;4.03;2.67;;;24.80;99.90;;;;;;5088468;28;20521;-72
2023/06/21 11:38:29;;;;;;;4.78;3.08;;;24.50;99.90;;;;;;5071853;28;20109;-71
2023/06/21 11:40:56;;;;;;;3.90;1.60;;;24.70;99.90;;;;;;5088120;28;20036;-71
2023/06/21 11:43:22;;;;;;;3.35;1.42;;;24.70;99.90;;;;;;5088364;28;20051;-71
2023/06/21 11:46:03;;;;;;;4.65;2.70;;;25.00;99.90;;;;;;5072349;28;20044;-71
2023/06/21 11:48:30;;;;;;;3.53;1.73;;;26.20;99.90;;;;;;5080143;28;20047;-71
2023/06/21 11:51:09;;;;;;;2.80;2.00;;;24.70;99.90;;;;;;5088102;28;20040;-73
2023/06/21 11:53:42;;;;;;;4.60;2.10;;;25.00;99.90;;;;;;5071405;28;20051;-71
2023/06/21 11:56:16;;;;;;;2.90;1.80;;;25.00;99.90;;;;;;5088171;28;20070;-72
2023/06/21 11:58:42;;;;;;;;;;;26.60;99.90;;;;;;5074511;28;20092;-72
2023/06/21 12:01:08;;;;;;;3.72;2.28;;;26.60;99.90;;;;;;5071669;28;19920;-71
2023/06/21 12:03:33;;;;;;;4.15;2.30;;;25.00;99.90;;;;;;5088078;28;20389;-71
2023/06/21 12:06:01;;;;;;;3.55;1.83;;;25.10;99.90;;;;;;5070853;28;20362;-71
2023/06/21 12:08:29;;;;;;;6.90;1.40;;;25.30;99.90;;;;;;5067678;28;20052;-71
2023/06/21 12:10:59;;;;;;;2.88;1.15;;;25.20;99.90;;;;;;5087694;28;20070;-72
2023/06/21 12:13:25;;;;;;;2.70;1.40;;;25.50;99.90;;;;;;5087850;28;20375;-71
2023/06/21 12:15:53;;;;;;;5.75;2.38;;;25.70;99.90;;;;;;5070814;28;20128;-72
2023/06/21 12:18:19;;;;;;;3.80;2.15;;;25.20;99.90;;;;;;5071383;28;20043;-71
2023/06/21 12:20:45;;;;;;;1.60;1.13;;;25.50;99.90;;;;;;5074254;28;20435;-72
2023/06/21 12:23:11;;;;;;;3.28;1.50;;;25.50;99.90;;;;;;5087647;28;20134;-72
2023/06/21 12:25:49;;;;;;;4.40;1.55;;;25.60;99.90;;;;;;5070598;28;20101;-72
2023/06/21 12:28:16;;;;;;;3.22;1.67;;;25.50;99.90;;;;;;5087223;28;20036;-72
2023/06/21 12:30:56;;;;;;;5.80;1.85;;;26.10;99.90;;;;;;5071478;28;20772;-72
2023/06/21 12:33:26;;;;;;;2.92;1.10;;;25.70;99.90;;;;;;5087010;28;20056;-72
2023/06/21 12:35:53;;;;;;;5.07;2.38;;;25.60;99.90;;;;;;5087137;28;20036;-71
2023/06/21 12:38:19;;;;;;;3.53;1.85;;;25.40;99.90;;;;;;5069961;28;20063;-71
2023/06/21 12:40:58;;;;;;;4.30;1.80;;;25.50;99.90;;;;;;5087413;28;20154;-71
2023/06/21 12:43:43;;;;;;;2.60;0.80;;;25.50;99.90;;;;;;5070782;28;20913;-71
2023/06/21 12:46:10;;;;;;;6.00;1.10;;;25.60;99.90;;;;;;5077756;28;20093;-72
2023/06/21 12:48:41;;;;;;;3.22;1.35;;;25.80;99.90;;;;;;5086806;28;20383;-72
2023/06/21 12:51:07;;;;;;;2.92;1.10;;;26.70;99.90;;;;;;5087482;28;20054;-72
2023/06/21 12:53:41;;;;;;;2.05;0.60;;;25.60;99.90;;;;;;5070454;28;20040;-72
2023/06/21 12:56:08;;;;;;;;;;;25.70;99.90;;;;;;5077429;28;20811;-72
2023/06/21 12:58:34;;;;;;;6.65;1.00;;;25.90;99.90;;;;;;5086868;28;19927;-72